»·PEaware :: N153CD KSMX-KBFL

N153CD :: KSMX-KBFL

FLIGHT INFORMATION

Flight Status: Arrived
Operator: Privately registered:
United States
More flights under this callsign
Pilot: Jone M. (10385)
Aircraft: CIRRUS SR-20
(SR20)
More flights by this aircraft type
Origin: KSMX Santa Maria Pub/Capt Hancock
United States
Destination: KBFL Meadows
United States
More flights between these airports :: More routes between these airports
Route: +
File this flight plan on PilotEdge
Remarks: CAT 5
Altitude:
(Current/Filed)
0ft
Speed:
(Current/Filed)
0kts
Departed: 08-Jan-19 12:40 PM
Arrived: 08-Jan-19 01:19 PM
Distance/Time
Traveled:
76nm/0:39
Distance/Time
To Go:
Arrived

Flight Plot

Page will automatically refresh every two minutes.


Map Options




Map Legend


Flown Route
Filed Route
Departure Airport
Arrival Airport
Navaid (VOR, NDB)
Fix

Horizontal Profiles

Position Reports

Time Latitude Longitude Heading Altitude Ground
Speed
08-Jan-19 12:33 34.895538 -120.445333 133 263ft 8kts
08-Jan-19 12:34 34.894313 -120.445217 148 263ft 5kts
08-Jan-19 12:35 34.893827 -120.444887 37 263ft 0kts
08-Jan-19 12:36 34.893492 -120.445183 203 263ft 0kts
08-Jan-19 12:37 34.893492 -120.445183 203 263ft 0kts
08-Jan-19 12:38 34.892958 -120.445456 232 263ft 9kts
08-Jan-19 12:39 34.899907 -120.454322 314 455ft 83kts
08-Jan-19 12:40 34.921220 -120.468463 19 1397ft 105kts
08-Jan-19 12:41 34.934717 -120.438949 65 2504ft 104kts
08-Jan-19 12:42 34.945968 -120.406501 63 3505ft 106kts
08-Jan-19 12:43 34.958519 -120.373204 64 4427ft 111kts
08-Jan-19 12:44 34.971454 -120.338552 65 5301ft 114kts
08-Jan-19 12:45 34.984807 -120.302612 66 6133ft 117kts
08-Jan-19 12:46 34.998443 -120.265813 68 6926ft 120kts
08-Jan-19 12:47 35.012420 -120.227947 70 7539ft 133kts
08-Jan-19 12:48 35.028771 -120.183558 70 7535ft 147kts
08-Jan-19 12:49 35.046185 -120.136171 71 7533ft 160kts
08-Jan-19 12:50 35.064688 -120.085819 71 7529ft 162kts
08-Jan-19 12:51 35.083112 -120.035627 71 7528ft 161kts
08-Jan-19 12:52 35.101445 -119.985596 71 7525ft 161kts
08-Jan-19 12:54 35.119693 -119.935745 71 7523ft 160kts
08-Jan-19 12:55 35.137869 -119.886028 72 7522ft 159kts
08-Jan-19 12:56 35.155926 -119.836566 72 7521ft 158kts
08-Jan-19 12:57 35.173847 -119.787396 72 7518ft 156kts
08-Jan-19 12:58 35.191430 -119.739059 72 7516ft 154kts
08-Jan-19 12:59 35.208734 -119.691400 72 7544ft 152kts
08-Jan-19 13:00 35.225933 -119.643971 72 7544ft 152kts
08-Jan-19 13:01 35.243079 -119.596632 72 7544ft 151kts
08-Jan-19 13:02 35.260127 -119.549497 72 7544ft 152kts
08-Jan-19 13:03 35.277337 -119.501836 72 7544ft 153kts
08-Jan-19 13:04 35.283087 -119.485899 72 7544ft 153kts
08-Jan-19 13:05 35.287596 -119.473407 74 7538ft 153kts
08-Jan-19 13:06 35.304959 -119.425286 75 7500ft 152kts
08-Jan-19 13:07 35.321853 -119.378268 74 7500ft 152kts
08-Jan-19 13:08 35.339087 -119.330248 74 7499ft 152kts
08-Jan-19 13:09 35.356049 -119.283156 74 7346ft 151kts
08-Jan-19 13:09 35.354025 -119.252970 135 6867ft 96kts
08-Jan-19 13:11 35.341652 -119.218695 73 5877ft 121kts
08-Jan-19 13:12 35.356806 -119.184460 75 5066ft 115kts
08-Jan-19 13:13 35.370050 -119.148260 72 4068ft 115kts
08-Jan-19 13:13 35.391213 -119.130055 17 3332ft 125kts
08-Jan-19 13:14 35.424376 -119.122116 4 2491ft 122kts
08-Jan-19 13:15 35.447810 -119.108846 48 1827ft 84kts
08-Jan-19 13:17 35.454567 -119.083655 116 949ft 65kts
08-Jan-19 13:18 35.443738 -119.068116 135 511ft 48kts
08-Jan-19 13:18 35.440252 -119.063396 48 508ft 8kts
08-Jan-19 13:20 35.440649 -119.062217 133 508ft 9kts
08-Jan-19 13:21 35.437666 -119.058616 138 508ft 16kts
08-Jan-19 13:21 35.435342 -119.055760 136 508ft 13kts
08-Jan-19 13:22 35.432777 -119.052665 130 508ft 12kts
08-Jan-19 13:23 35.433228 -119.049415 103 508ft 10kts
08-Jan-19 13:24 35.433218 -119.048289 257 508ft 0kts

Navigation Log

Ident Type
Flight plan parsing failed, navigation log unavailable